Terminal Aerodrome Forecast
Issued by NWS

Home | Current Version | Previous Version | Text Only | Print | Product List | Glossary On
Versions: 1 2 3 4 5 6 7 8 9 10 11 12 13 14 15 16 17 18 19 20 21 22 23 24 25 26 27 28
218
FTUS41 KOKX 252326
TAFSWF
TAF
KSWF 252326Z 2600/2706 VRB02KT P6SM BKN025 BKN050
     FM260700 VRB02KT P6SM BKN045
     FM261200 VRB02KT P6SM SKC
     FM261700 16006KT P6SM BKN040
     FM262100 18006KT P6SM SCT040
     FM262300 VRB04KT P6SM SCT250
      AMD NOT SKED=

USA.gov is the U.S. government's official web portal to all federal, state and local government web resources and services.